Time;durP1;ratioP1;P1;durP2;ratioP2;P2;SDS_P1;SDS_P2;PMS_P1;PMS_P2;Temp;Humidity;BMP_temperature;BMP_pressure;BME280_temperature;BME280_humidity;BME280_pressure;Samples;Min_cycle;Max_cycle;Signal;HPM_P1;HPM_P2
2023/05/02 00:01:49;;;;;;;12.07;6.72;;;10.90;99.90;;;;;;5017693;28;20052;-83
2023/05/02 00:04:15;;;;;;;17.73;6.90;;;10.80;99.90;;;;;;5078606;28;20043;-82
2023/05/02 00:06:45;;;;;;;16.00;6.50;;;10.80;99.90;;;;;;5059900;28;20048;-82
2023/05/02 00:09:11;;;;;;;15.68;7.22;;;10.70;1.00;;;;;;5074408;28;20130;-82
2023/05/02 00:11:37;;;;;;;16.08;6.72;;;10.70;1.00;;;;;;5065352;28;20043;-82
2023/05/02 00:14:03;;;;;;;14.00;6.03;;;10.50;1.00;;;;;;5048958;28;20150;-82
2023/05/02 00:16:28;;;;;;;12.85;5.70;;;10.40;1.00;;;;;;5051610;28;20040;-81
2023/05/02 00:18:54;;;;;;;22.27;6.35;;;10.40;1.00;;;;;;5050009;28;20040;-86
2023/05/02 00:21:20;;;;;;;12.45;6.38;;;10.30;1.00;;;;;;5037338;28;20078;-83
2023/05/02 00:23:46;;;;;;;12.77;5.07;;;10.20;1.00;;;;;;5050051;28;20524;-82
2023/05/02 00:26:12;;;;;;;10.43;4.63;;;10.20;1.00;;;;;;5047884;28;20219;-81
2023/05/02 00:28:39;;;;;;;9.35;3.92;;;10.10;1.00;;;;;;5055291;28;20071;-81
2023/05/02 00:31:04;;;;;;;8.35;3.50;;;10.00;26.30;;;;;;5037535;28;20059;-80
2023/05/02 00:33:30;;;;;;;7.90;2.95;;;10.00;36.70;;;;;;5051923;28;20048;-81
2023/05/02 00:35:56;;;;;;;7.43;2.70;;;9.80;58.30;;;;;;5032424;28;20055;-85
2023/05/02 00:38:21;;;;;;;4.93;2.83;;;9.80;50.70;;;;;;5074285;28;20040;-82
2023/05/02 00:40:51;;;;;;;6.05;3.30;;;9.70;51.40;;;;;;5072853;28;20477;-82
2023/05/02 00:43:16;;;;;;;8.45;3.95;;;9.70;61.10;;;;;;5056066;28;20087;-80
2023/05/02 00:45:43;;;;;;;6.00;3.88;;;9.70;60.90;;;;;;5061609;28;20068;-80
2023/05/02 00:48:09;;;;;;;11.25;4.32;;;9.60;97.90;;;;;;5061290;28;20040;-79
2023/05/02 00:50:40;;;;;;;10.82;4.65;;;9.50;99.90;;;;;;5037110;28;20410;-80
2023/05/02 00:53:07;;;;;;;12.63;4.32;;;9.50;96.90;;;;;;5062057;28;20146;-81
2023/05/02 00:55:33;;;;;;;9.93;4.07;;;9.40;90.90;;;;;;5067632;28;20043;-79
2023/05/02 00:58:06;;;;;;;7.47;3.58;;;9.40;93.00;;;;;;5053594;28;20557;-85
2023/05/02 01:00:54;;;;;;;8.93;3.80;;;9.30;90.40;;;;;;5083690;28;20047;-79
2023/05/02 01:03:48;;;;;;;7.35;4.18;;;9.30;85.80;;;;;;5071373;28;20032;-81
2023/05/02 01:06:35;;;;;;;8.25;3.90;;;9.20;83.80;;;;;;5042265;28;20139;-79
2023/05/02 01:09:30;;;;;;;14.13;3.90;;;9.20;79.50;;;;;;5081294;28;20105;-86
2023/05/02 01:12:14;;;;;;;8.98;3.60;;;9.10;68.10;;;;;;5084883;28;20051;-81
2023/05/02 01:14:47;;;;;;;10.02;4.20;;;9.10;24.30;;;;;;5074997;28;20040;-80
2023/05/02 01:17:14;;;;;;;9.35;4.18;;;9.10;3.20;;;;;;5058236;28;20123;-79
2023/05/02 01:19:50;;;;;;;8.48;3.90;;;9.10;1.00;;;;;;5070353;28;20048;-83
2023/05/02 01:22:16;;;;;;;5.93;3.58;;;9.10;1.00;;;;;;5075757;28;20040;-80
2023/05/02 01:25:10;;;;;;;8.60;4.40;;;9.10;1.00;;;;;;5074434;28;20473;-85
2023/05/02 01:27:50;;;;;;;8.65;3.88;;;9.00;1.00;;;;;;5084871;28;20448;-82
2023/05/02 01:30:19;;;;;;;10.93;3.40;;;9.10;1.00;;;;;;5066007;28;20059;-80
2023/05/02 01:32:47;;;;;;;10.57;3.95;;;9.00;1.00;;;;;;5082385;28;20163;-83
2023/05/02 01:35:17;;;;;;;10.38;3.67;;;9.00;1.00;;;;;;5069912;28;20118;-79
2023/05/02 01:37:48;;;;;;;9.93;3.40;;;9.00;1.00;;;;;;5067678;28;20409;-80
2023/05/02 01:40:19;;;;;;;10.18;3.42;;;9.00;1.00;;;;;;5073693;28;20054;-80
2023/05/02 01:42:50;;;;;;;11.40;3.55;;;9.00;1.00;;;;;;5066045;28;20082;-81
2023/05/02 01:45:17;;;;;;;9.13;3.50;;;9.00;1.00;;;;;;5066462;28;20051;-80
2023/05/02 01:47:44;;;;;;;11.32;3.97;;;9.00;1.00;;;;;;5062491;28;20043;-80
2023/05/02 01:50:15;;;;;;;8.73;3.53;;;9.00;1.00;;;;;;5072875;28;20040;-82
2023/05/02 01:52:43;;;;;;;11.73;3.90;;;9.10;1.00;;;;;;5056866;28;20452;-80
2023/05/02 01:55:12;;;;;;;13.77;3.75;;;9.10;1.00;;;;;;5056687;28;20040;-87
2023/05/02 01:57:41;;;;;;;10.73;3.80;;;9.10;1.00;;;;;;5058531;28;20105;-80
2023/05/02 02:00:08;;;;;;;10.00;4.03;;;9.10;1.00;;;;;;5073006;28;20078;-80
2023/05/02 02:02:35;;;;;;;12.43;4.00;;;9.30;1.00;;;;;;5051171;28;20071;-79
2023/05/02 02:05:03;;;;;;;12.43;3.53;;;9.10;1.00;;;;;;5055878;28;20497;-81
2023/05/02 02:07:29;;;;;;;13.20;3.53;;;9.10;1.00;;;;;;5077685;28;20204;-79
2023/05/02 02:09:55;;;;;;;10.80;3.80;;;9.10;1.00;;;;;;5079361;28;20052;-81
2023/05/02 02:12:37;;;;;;;8.05;4.00;;;9.10;24.40;;;;;;5079241;28;20052;-80
2023/05/02 02:15:08;;;;;;;10.52;3.60;;;9.10;29.80;;;;;;5071422;28;20051;-80
2023/05/02 02:17:42;;;;;;;8.38;3.65;;;9.00;35.00;;;;;;5053644;28;20044;-80
2023/05/02 02:20:11;;;;;;;5.80;2.35;;;9.00;41.20;;;;;;5065690;28;20048;-80
2023/05/02 02:22:39;;;;;;;11.38;3.08;;;9.00;64.70;;;;;;5073492;28;20044;-79
2023/05/02 02:25:09;;;;;;;9.07;2.70;;;8.80;53.20;;;;;;5073789;28;20493;-78
2023/05/02 02:27:39;;;;;;;12.98;2.85;;;8.70;32.20;;;;;;5055512;28;20148;-79
2023/05/02 02:30:07;;;;;;;14.95;2.90;;;8.60;25.20;;;;;;5070590;28;20138;-80
2023/05/02 02:32:32;;;;;;;12.35;3.38;;;8.50;27.70;;;;;;5074298;28;20118;-79
2023/05/02 02:34:59;;;;;;;10.02;2.95;;;8.40;30.10;;;;;;5074463;28;20119;-79
2023/05/02 02:37:32;;;;;;;12.70;3.30;;;8.30;34.30;;;;;;5057253;28;20083;-80
2023/05/02 02:40:20;;;;;;;13.75;3.80;;;8.20;40.90;;;;;;5071251;28;20076;-79
2023/05/02 02:43:05;;;;;;;11.25;3.00;;;8.10;45.10;;;;;;5090718;28;20048;-79
2023/05/02 02:46:03;;;;;;;15.73;5.22;;;8.10;42.80;;;;;;5084365;28;20090;-80
2023/05/02 02:48:36;;;;;;;;;;;8.10;45.40;;;;;;5065943;28;20072;-80
2023/05/02 02:51:20;;;;;;;11.05;2.90;;;8.00;76.10;;;;;;5070833;28;20331;-80
2023/05/02 02:54:12;;;;;;;7.82;3.17;;;8.00;63.90;;;;;;5077534;28;20052;-80
2023/05/02 02:56:40;;;;;;;16.83;3.28;;;7.90;56.50;;;;;;5067119;28;20036;-79
2023/05/02 02:59:15;;;;;;;18.15;3.42;;;8.00;58.50;;;;;;5066115;28;20069;-80
2023/05/02 03:01:45;;;;;;;24.90;3.83;;;7.90;32.70;;;;;;5065288;28;20047;-80
2023/05/02 03:04:14;;;;;;;17.85;3.90;;;7.80;24.00;;;;;;5056256;28;20097;-82
2023/05/02 03:06:41;;;;;;;16.70;4.30;;;7.80;5.00;;;;;;5061931;28;20134;-82
2023/05/02 03:09:16;;;;;;;16.90;3.88;;;7.70;1.00;;;;;;5058365;28;20052;-80
2023/05/02 03:11:42;;;;;;;15.20;3.58;;;7.60;1.00;;;;;;5067038;28;20093;-79
2023/05/02 03:14:08;;;;;;;12.70;3.60;;;7.50;1.00;;;;;;5044525;28;20429;-79
2023/05/02 03:16:38;;;;;;;17.60;4.40;;;7.40;1.00;;;;;;5059588;28;20068;-79
2023/05/02 03:19:05;;;;;;;12.60;4.00;;;7.30;1.00;;;;;;5057652;28;20040;-80
2023/05/02 03:21:31;;;;;;;12.02;4.00;;;7.30;1.00;;;;;;5030463;28;20044;-83
2023/05/02 03:24:01;;;;;;;20.38;3.42;;;7.20;1.00;;;;;;5069300;28;20052;-81
2023/05/02 03:26:27;;;;;;;15.10;4.28;;;7.20;1.00;;;;;;5069110;28;20052;-79
2023/05/02 03:28:54;;;;;;;17.00;3.83;;;7.20;1.00;;;;;;5056044;28;20051;-80
2023/05/02 03:31:20;;;;;;;17.05;3.38;;;7.10;1.00;;;;;;5070337;28;20124;-79
2023/05/02 03:33:47;;;;;;;17.45;3.55;;;7.10;1.00;;;;;;5071247;28;20130;-82
2023/05/02 03:36:13;;;;;;;16.67;3.40;;;7.20;1.00;;;;;;5076560;28;20051;-80
2023/05/02 03:38:39;;;;;;;15.00;3.25;;;7.20;1.00;;;;;;5065905;28;20036;-79
2023/05/02 03:41:05;;;;;;;13.93;2.65;;;7.20;1.00;;;;;;5039837;28;20066;-81
2023/05/02 03:43:31;;;;;;;13.05;3.03;;;7.20;1.00;;;;;;5071464;28;20079;-80
2023/05/02 03:46:02;;;;;;;13.00;4.03;;;7.10;1.00;;;;;;5050077;28;20044;-79
2023/05/02 03:48:28;;;;;;;10.32;2.47;;;7.10;1.00;;;;;;5065724;28;20048;-79
2023/05/02 03:50:54;;;;;;;13.48;2.92;;;7.00;1.00;;;;;;5066108;28;20040;-85
2023/05/02 03:53:19;;;;;;;10.15;3.22;;;7.10;1.00;;;;;;5041890;28;20101;-83
2023/05/02 03:55:45;;;;;;;12.70;2.42;;;7.20;99.90;;;;;;5077177;28;20036;-80
2023/05/02 03:58:11;;;;;;;11.70;2.72;;;7.00;99.90;;;;;;5073915;28;20074;-80
2023/05/02 04:00:39;;;;;;;10.52;2.75;;;7.00;99.90;;;;;;5068998;28;20101;-80
2023/05/02 04:03:06;;;;;;;6.90;2.83;;;7.10;99.90;;;;;;5066907;28;20048;-80
2023/05/02 04:05:31;;;;;;;12.73;2.92;;;7.00;99.90;;;;;;5060179;28;20047;-80
2023/05/02 04:07:57;;;;;;;9.93;2.28;;;7.00;99.90;;;;;;5061140;28;20040;-80
2023/05/02 04:10:23;;;;;;;9.00;2.38;;;7.00;99.90;;;;;;5055434;28;20146;-79
2023/05/02 04:12:49;;;;;;;8.60;2.28;;;7.00;99.90;;;;;;5054463;28;20517;-80
2023/05/02 04:15:15;;;;;;;12.00;2.50;;;7.00;99.90;;;;;;5044703;28;20397;-80
2023/05/02 04:17:40;;;;;;;10.55;2.30;;;7.10;99.90;;;;;;5044532;28;20056;-81
2023/05/02 04:20:07;;;;;;;6.55;1.88;;;7.10;99.90;;;;;;5050401;28;20056;-80
2023/05/02 04:22:33;;;;;;;10.65;1.83;;;7.10;99.90;;;;;;5055934;28;20062;-79
2023/05/02 04:24:59;;;;;;;10.40;2.15;;;7.10;99.90;;;;;;5040079;28;20481;-80
2023/05/02 04:27:25;;;;;;;8.75;2.28;;;7.10;99.90;;;;;;5056416;28;20180;-80
2023/05/02 04:29:52;;;;;;;8.35;2.10;;;7.10;99.90;;;;;;5072410;28;20048;-81
2023/05/02 04:32:18;;;;;;;11.23;2.08;;;7.20;99.90;;;;;;5055765;28;20059;-80
2023/05/02 04:34:44;;;;;;;20.02;2.10;;;7.20;99.50;;;;;;5071841;28;20054;-79
2023/05/02 04:37:10;;;;;;;4.60;2.03;;;7.20;1.00;;;;;;5055415;28;20763;-81
2023/05/02 04:39:36;;;;;;;11.00;2.30;;;7.20;1.00;;;;;;5043360;28;20492;-81
2023/05/02 04:42:02;;;;;;;13.52;1.63;;;7.20;1.00;;;;;;5077260;28;20500;-80
2023/05/02 04:44:28;;;;;;;7.85;1.50;;;7.20;1.00;;;;;;5060408;28;20079;-80
2023/05/02 04:46:53;;;;;;;11.52;1.77;;;7.20;1.00;;;;;;5071538;28;20079;-81
2023/05/02 04:49:19;;;;;;;7.28;1.90;;;7.20;1.00;;;;;;5060025;28;20047;-81
2023/05/02 04:51:45;;;;;;;6.95;1.40;;;7.20;99.90;;;;;;5059107;28;20147;-82
2023/05/02 04:54:11;;;;;;;7.40;1.80;;;7.20;1.00;;;;;;5037219;28;20048;-81
2023/05/02 04:56:38;;;;;;;8.30;1.65;;;7.20;99.90;;;;;;5051595;28;20045;-80
2023/05/02 04:59:03;;;;;;;3.17;1.42;;;7.20;99.90;;;;;;5057040;28;20502;-80
2023/05/02 05:01:29;;;;;;;4.68;1.40;;;7.20;99.90;;;;;;5053731;28;20044;-81
2023/05/02 05:03:55;;;;;;;5.93;1.52;;;7.20;99.90;;;;;;5060161;28;20477;-80
2023/05/02 05:06:21;;;;;;;8.20;1.38;;;7.20;99.90;;;;;;5058861;28;20040;-84
2023/05/02 05:08:47;;;;;;;6.90;1.40;;;7.20;99.90;;;;;;5076565;28;20095;-83
2023/05/02 05:11:14;;;;;;;6.40;1.60;;;7.20;99.90;;;;;;5046312;28;20477;-80
2023/05/02 05:13:41;;;;;;;8.38;1.80;;;7.20;99.90;;;;;;5062080;28;20091;-83
2023/05/02 05:16:07;;;;;;;2.70;1.08;;;7.20;99.90;;;;;;5053834;28;20052;-81
2023/05/02 05:18:39;;;;;;;9.45;1.35;;;7.20;99.90;;;;;;5068062;28;20090;-82
2023/05/02 05:21:09;;;;;;;7.68;1.73;;;7.20;99.90;;;;;;5042304;28;20124;-82
2023/05/02 05:23:36;;;;;;;11.05;2.10;;;7.30;99.90;;;;;;5050986;28;20076;-82
2023/05/02 05:26:12;;;;;;;13.55;2.40;;;7.50;99.90;;;;;;5046834;28;20115;-81
2023/05/02 05:28:38;;;;;;;8.55;1.92;;;7.40;99.90;;;;;;5068465;28;20044;-86
2023/05/02 05:31:06;;;;;;;2.60;1.30;;;7.40;99.90;;;;;;5049978;28;20072;-81
2023/05/02 05:33:32;;;;;;;9.73;1.75;;;7.40;99.90;;;;;;5067256;28;20144;-83
2023/05/02 05:36:04;;;;;;;8.38;1.98;;;7.40;99.90;;;;;;5029687;28;20041;-82
2023/05/02 05:38:29;;;;;;;3.65;1.75;;;7.40;99.90;;;;;;5030787;28;20644;-82
2023/05/02 05:40:55;;;;;;;9.45;2.17;;;7.40;99.90;;;;;;5030184;28;20144;-83
2023/05/02 05:43:21;;;;;;;7.68;1.70;;;7.40;99.90;;;;;;5049149;28;20052;-82
2023/05/02 05:45:46;;;;;;;7.78;2.00;;;7.40;99.90;;;;;;5069129;28;20088;-82
2023/05/02 05:48:12;;;;;;;8.88;1.88;;;7.50;99.90;;;;;;5066415;28;20071;-82
2023/05/02 05:50:38;;;;;;;6.78;1.77;;;7.50;99.90;;;;;;5050861;28;20045;-82
2023/05/02 05:53:03;;;;;;;11.90;2.42;;;7.50;99.90;;;;;;5032313;28;20053;-80
2023/05/02 05:55:29;;;;;;;14.35;1.98;;;7.60;99.90;;;;;;5033945;28;20040;-79
2023/05/02 05:57:55;;;;;;;9.32;1.95;;;7.60;99.90;;;;;;5048181;28;20048;-80
2023/05/02 06:00:21;;;;;;;9.25;2.20;;;7.70;99.90;;;;;;5040027;28;20060;-80
2023/05/02 06:02:46;;;;;;;7.38;1.80;;;7.80;99.90;;;;;;5051183;28;20062;-82
2023/05/02 06:05:12;;;;;;;9.60;2.03;;;7.90;99.90;;;;;;5045657;28;20127;-82
2023/05/02 06:07:38;;;;;;;5.45;1.67;;;7.90;99.90;;;;;;5050664;28;20049;-81
2023/05/02 06:10:04;;;;;;;7.90;2.30;;;7.90;99.90;;;;;;5052777;28;20091;-81
2023/05/02 06:12:30;;;;;;;12.80;2.63;;;7.90;99.90;;;;;;5071345;28;20053;-83
2023/05/02 06:14:55;;;;;;;8.18;2.38;;;8.00;99.90;;;;;;5055636;28;20068;-82
2023/05/02 06:17:21;;;;;;;6.68;2.28;;;8.00;99.90;;;;;;5072135;28;20089;-82
2023/05/02 06:19:47;;;;;;;4.43;1.77;;;8.00;99.90;;;;;;5055539;28;20444;-86
2023/05/02 06:22:13;;;;;;;9.05;1.90;;;8.00;99.90;;;;;;5088740;28;20062;-82
2023/05/02 06:24:39;;;;;;;14.18;3.05;;;8.00;99.90;;;;;;5055947;28;20048;-82
2023/05/02 06:27:04;;;;;;;10.70;2.10;;;8.00;99.90;;;;;;5055087;28;20083;-83
2023/05/02 06:29:30;;;;;;;9.30;2.20;;;8.00;99.90;;;;;;5055809;28;20055;-81
2023/05/02 06:31:56;;;;;;;7.97;2.40;;;8.00;99.90;;;;;;5054465;28;20056;-84
2023/05/02 06:34:21;;;;;;;6.60;1.75;;;8.10;99.90;;;;;;5061600;28;20043;-82
2023/05/02 06:36:47;;;;;;;10.50;2.38;;;8.10;76.20;;;;;;5060304;28;20510;-86
2023/05/02 06:39:13;;;;;;;9.05;2.40;;;8.10;76.80;;;;;;5069680;28;20119;-82
2023/05/02 06:41:38;;;;;;;10.00;2.30;;;8.20;76.20;;;;;;5072089;28;20048;-82
2023/05/02 06:44:04;;;;;;;9.50;2.05;;;8.20;63.40;;;;;;5067786;28;20655;-81
2023/05/02 06:46:30;;;;;;;10.18;2.85;;;8.30;57.50;;;;;;5076902;28;20557;-81
2023/05/02 06:48:56;;;;;;;9.57;2.45;;;8.30;33.30;;;;;;5041270;28;20056;-82
2023/05/02 06:51:22;;;;;;;6.65;2.67;;;8.40;31.30;;;;;;5064181;28;20051;-82
2023/05/02 06:53:47;;;;;;;9.77;2.22;;;8.40;44.70;;;;;;5071679;28;20066;-83
2023/05/02 06:56:13;;;;;;;11.10;3.08;;;8.40;16.40;;;;;;5040010;28;20089;-82
2023/05/02 06:58:39;;;;;;;6.00;2.00;;;8.50;23.80;;;;;;5045074;28;20131;-82
2023/05/02 07:01:05;;;;;;;4.43;1.90;;;8.60;24.00;;;;;;5061162;28;20056;-82
2023/05/02 07:03:30;;;;;;;11.38;2.30;;;8.60;16.80;;;;;;5063267;28;20340;-86
2023/05/02 07:05:56;;;;;;;10.90;2.40;;;8.70;18.80;;;;;;5062240;28;20041;-84
2023/05/02 07:08:22;;;;;;;6.47;1.90;;;8.70;1.00;;;;;;5031237;28;20044;-81
2023/05/02 07:10:49;;;;;;;5.05;1.90;;;8.70;1.00;;;;;;5066334;28;20108;-80
2023/05/02 07:13:15;;;;;;;10.55;2.60;;;8.70;1.00;;;;;;5050398;28;20107;-82
2023/05/02 07:15:41;;;;;;;8.02;2.25;;;8.80;1.00;;;;;;5033477;28;20049;-84
2023/05/02 07:18:07;;;;;;;12.68;2.00;;;8.80;1.00;;;;;;5062195;28;20056;-81
2023/05/02 07:20:32;;;;;;;9.23;2.85;;;8.90;1.00;;;;;;5070951;28;20040;-80
2023/05/02 07:22:58;;;;;;;9.38;2.08;;;9.00;1.00;;;;;;5070834;28;20041;-81
2023/05/02 07:25:24;;;;;;;7.70;2.20;;;9.10;1.00;;;;;;5041057;28;20082;-81
2023/05/02 07:27:50;;;;;;;10.60;2.05;;;9.10;1.00;;;;;;5054583;28;20405;-86
2023/05/02 07:30:15;;;;;;;6.70;2.05;;;9.20;1.00;;;;;;5054028;28;20123;-81
2023/05/02 07:32:41;;;;;;;6.80;2.13;;;9.20;1.00;;;;;;5070487;28;20052;-83
2023/05/02 07:35:07;;;;;;;5.40;1.95;;;9.30;1.00;;;;;;5053442;28;20066;-82
2023/05/02 07:37:34;;;;;;;9.25;2.10;;;9.40;1.00;;;;;;5070380;28;20588;-81
2023/05/02 07:40:00;;;;;;;6.00;2.08;;;9.50;1.00;;;;;;5054051;28;20505;-83
2023/05/02 07:42:30;;;;;;;9.07;2.30;;;9.60;1.00;;;;;;5070061;28;20548;-81
2023/05/02 07:44:55;;;;;;;5.90;1.83;;;9.50;1.00;;;;;;5037868;28;20044;-81
2023/05/02 07:47:21;;;;;;;7.32;1.85;;;9.60;1.00;;;;;;5042673;28;20041;-82
2023/05/02 07:49:50;;;;;;;6.00;1.80;;;9.60;1.00;;;;;;5051501;28;20139;-82
2023/05/02 07:52:16;;;;;;;4.45;1.58;;;9.80;1.00;;;;;;5053306;28;20040;-81
2023/05/02 07:54:42;;;;;;;3.95;1.65;;;9.80;1.00;;;;;;5053639;28;20058;-82
2023/05/02 07:57:07;;;;;;;9.38;1.80;;;9.90;1.00;;;;;;5075129;28;20043;-83
2023/05/02 07:59:33;;;;;;;4.88;1.60;;;10.00;1.00;;;;;;5035752;28;20132;-82
2023/05/02 08:01:59;;;;;;;5.45;1.65;;;10.10;1.00;;;;;;5048645;28;20045;-82
2023/05/02 08:04:25;;;;;;;5.80;1.90;;;10.30;1.00;;;;;;5057024;28;20108;-81
2023/05/02 08:06:51;;;;;;;7.05;1.77;;;10.30;1.00;;;;;;5076352;28;20062;-82
2023/05/02 08:09:17;;;;;;;9.68;2.22;;;10.30;1.00;;;;;;5045900;28;20123;-82
2023/05/02 08:11:42;;;;;;;5.13;1.80;;;10.40;1.00;;;;;;5053972;28;20041;-82
2023/05/02 08:14:08;;;;;;;6.55;1.63;;;10.50;1.00;;;;;;5066976;28;20048;-82
2023/05/02 08:16:34;;;;;;;5.85;1.73;;;10.40;1.00;;;;;;5050818;28;20465;-82
2023/05/02 08:18:59;;;;;;;4.88;1.80;;;10.30;1.00;;;;;;5072619;28;20489;-81
2023/05/02 08:21:26;;;;;;;8.25;2.40;;;10.40;1.00;;;;;;5056206;28;20044;-81
2023/05/02 08:23:57;;;;;;;5.10;2.35;;;10.50;1.00;;;;;;5072773;28;20128;-81
2023/05/02 08:26:23;;;;;;;9.07;2.00;;;10.60;1.00;;;;;;5051121;28;20077;-81
2023/05/02 08:28:50;;;;;;;5.95;1.90;;;10.60;1.00;;;;;;5055919;28;20052;-81
2023/05/02 08:31:16;;;;;;;9.75;1.90;;;10.60;1.00;;;;;;5055955;28;20158;-85
2023/05/02 08:33:42;;;;;;;4.47;1.90;;;10.70;1.00;;;;;;5056598;28;20403;-82
2023/05/02 08:36:12;;;;;;;6.68;1.67;;;10.90;1.00;;;;;;5056161;28;20036;-83
2023/05/02 08:38:38;;;;;;;7.70;1.70;;;11.10;1.00;;;;;;5056942;28;20049;-82
2023/05/02 08:41:10;;;;;;;6.88;1.90;;;11.30;1.00;;;;;;5049897;28;20239;-82
2023/05/02 08:43:37;;;;;;;6.10;1.63;;;11.40;1.00;;;;;;5067573;28;20055;-81
2023/05/02 08:46:06;;;;;;;6.95;1.85;;;11.40;1.00;;;;;;5085996;28;20552;-82
2023/05/02 08:48:34;;;;;;;5.00;1.67;;;11.50;1.00;;;;;;5041655;28;20075;-81
2023/05/02 08:51:02;;;;;;;3.40;1.48;;;11.40;1.00;;;;;;5056734;28;20097;-81
2023/05/02 08:53:33;;;;;;;9.70;1.67;;;11.30;1.00;;;;;;5072702;28;20044;-81
2023/05/02 08:56:00;;;;;;;10.57;2.15;;;11.10;1.00;;;;;;5049616;28;20097;-81
2023/05/02 08:58:25;;;;;;;6.68;1.45;;;10.80;1.00;;;;;;5062874;28;20067;-84
2023/05/02 09:00:54;;;;;;;4.72;1.60;;;10.70;1.00;;;;;;5055423;28;20497;-82
2023/05/02 09:03:31;;;;;;;3.70;1.08;;;10.60;1.00;;;;;;5071258;28;20071;-81
2023/05/02 09:06:06;;;;;;;6.70;1.27;;;10.60;1.00;;;;;;5055919;28;20056;-82
2023/05/02 09:08:33;;;;;;;2.78;0.88;;;10.80;1.00;;;;;;5071889;28;20063;-82
2023/05/02 09:11:00;;;;;;;5.05;1.27;;;10.90;1.00;;;;;;5050281;28;20087;-81
2023/05/02 09:13:39;;;;;;;5.85;1.25;;;10.90;1.00;;;;;;5055241;28;20052;-87
2023/05/02 09:16:10;;;;;;;6.20;1.30;;;11.00;1.00;;;;;;5068393;28;20067;-82
2023/05/02 09:18:45;;;;;;;6.28;1.98;;;11.20;1.00;;;;;;5055346;28;20052;-83
2023/05/02 09:21:16;;;;;;;6.75;1.15;;;11.50;1.00;;;;;;5054679;28;20097;-88
2023/05/02 09:23:44;;;;;;;4.53;1.05;;;12.10;1.00;;;;;;5072152;28;20504;-81
2023/05/02 09:26:21;;;;;;;5.93;1.38;;;12.40;1.00;;;;;;5075263;28;20508;-82
2023/05/02 09:28:50;;;;;;;5.63;1.30;;;13.30;1.00;;;;;;5068277;28;20054;-81
2023/05/02 09:31:29;;;;;;;5.28;1.10;;;14.50;1.00;;;;;;5058006;28;20075;-82
2023/05/02 09:33:55;;;;;;;6.43;1.20;;;14.60;1.00;;;;;;5081970;28;20398;-82
2023/05/02 09:36:21;;;;;;;3.38;0.90;;;14.20;1.00;;;;;;5063534;28;20036;-81
2023/05/02 09:38:49;;;;;;;4.40;0.90;;;13.50;1.00;;;;;;5046070;28;20097;-82
2023/05/02 09:41:18;;;;;;;2.10;0.90;;;13.10;1.00;;;;;;5059472;28;20094;-86
2023/05/02 09:43:55;;;;;;;2.20;0.80;;;12.90;1.00;;;;;;5041357;28;20060;-81
2023/05/02 09:46:21;;;;;;;3.13;0.85;;;12.80;1.00;;;;;;5068071;28;20048;-82
2023/05/02 09:48:55;;;;;;;2.50;1.00;;;12.80;1.00;;;;;;5055537;28;20059;-82
2023/05/02 09:51:22;;;;;;;4.22;1.02;;;13.80;1.00;;;;;;5072694;28;20143;-82
2023/05/02 09:53:49;;;;;;;8.20;1.15;;;14.20;1.00;;;;;;5075870;28;20071;-81
2023/05/02 09:56:17;;;;;;;2.75;1.20;;;13.90;1.00;;;;;;5075246;28;20759;-82
2023/05/02 09:58:43;;;;;;;2.25;0.98;;;13.40;1.00;;;;;;5075655;28;20047;-81
2023/05/02 10:01:16;;;;;;;4.13;1.20;;;13.00;1.00;;;;;;5075797;28;20477;-81
2023/05/02 10:03:46;;;;;;;3.42;1.13;;;12.70;1.00;;;;;;5059242;28;20054;-81
2023/05/02 10:06:12;;;;;;;3.15;0.93;;;12.60;1.00;;;;;;5070846;28;20538;-81
2023/05/02 10:08:38;;;;;;;6.93;1.67;;;12.60;1.00;;;;;;5075323;28;20198;-82
2023/05/02 10:11:07;;;;;;;3.53;1.27;;;12.50;1.00;;;;;;5059061;28;20189;-81
2023/05/02 10:13:36;;;;;;;5.53;1.98;;;12.50;1.00;;;;;;5074479;28;20048;-82
2023/05/02 10:16:05;;;;;;;3.40;1.13;;;12.50;1.00;;;;;;5075510;28;20117;-82
2023/05/02 10:18:52;;;;;;;2.00;1.00;;;12.60;1.00;;;;;;5075023;28;20047;-82
2023/05/02 10:21:26;;;;;;;3.60;0.88;;;12.70;1.00;;;;;;5069285;28;20061;-81
2023/05/02 10:23:52;;;;;;;2.95;0.95;;;12.70;1.00;;;;;;5076941;28;20067;-81
2023/05/02 10:26:20;;;;;;;2.65;0.80;;;12.60;1.00;;;;;;5075509;28;20047;-81
2023/05/02 10:28:47;;;;;;;1.70;0.85;;;12.60;1.00;;;;;;5075186;28;20059;-82
2023/05/02 10:31:14;;;;;;;1.58;0.65;;;12.60;1.00;;;;;;5071207;28;20055;-81
2023/05/02 10:33:40;;;;;;;1.35;0.70;;;12.90;1.00;;;;;;5058616;28;20054;-81
2023/05/02 10:36:08;;;;;;;6.72;0.75;;;13.10;1.00;;;;;;5066618;28;20035;-82
2023/05/02 10:38:36;;;;;;;3.25;0.80;;;13.50;1.00;;;;;;5070050;28;20442;-81
2023/05/02 10:41:09;;;;;;;2.58;1.05;;;14.00;1.00;;;;;;5074338;28;20478;-82
2023/05/02 10:43:36;;;;;;;4.68;0.85;;;14.50;1.00;;;;;;5061294;28;20048;-82
2023/05/02 10:46:02;;;;;;;3.30;0.88;;;14.90;1.00;;;;;;5045373;28;20047;-81
2023/05/02 10:48:29;;;;;;;3.85;0.65;;;14.60;1.00;;;;;;5057415;28;20138;-82
2023/05/02 10:50:56;;;;;;;2.67;0.80;;;14.30;1.00;;;;;;5075092;28;20094;-82
2023/05/02 10:53:23;;;;;;;2.55;0.90;;;13.80;1.00;;;;;;5057798;28;20044;-82
2023/05/02 10:56:24;;;;;;;3.95;0.70;;;13.30;1.00;;;;;;5055352;28;20040;-82
2023/05/02 10:58:52;;;;;;;4.18;0.82;;;12.80;1.00;;;;;;4999217;28;20058;-83
2023/05/02 11:01:26;;;;;;;1.80;0.70;;;12.70;1.00;;;;;;5067103;28;20087;-81
2023/05/02 11:03:54;;;;;;;2.10;0.80;;;12.80;1.00;;;;;;5076898;28;20080;-81
2023/05/02 11:06:20;;;;;;;4.28;0.90;;;12.90;1.00;;;;;;5073504;28;20050;-83
2023/05/02 11:08:45;;;;;;;3.20;0.90;;;13.10;1.00;;;;;;5023741;28;20221;-81
2023/05/02 11:11:43;;;;;;;5.82;0.57;;;13.20;1.00;;;;;;5056793;28;20040;-81
2023/05/02 11:14:10;;;;;;;1.58;0.93;;;13.30;1.00;;;;;;5045729;28;20063;-81
2023/05/02 11:17:05;;;;;;;4.72;1.20;;;13.10;1.00;;;;;;5035375;28;20056;-81
2023/05/02 11:19:37;;;;;;;1.63;0.75;;;13.00;1.00;;;;;;5063511;28;20048;-84
2023/05/02 11:22:18;;;;;;;4.03;1.08;;;12.90;1.00;;;;;;5066692;28;20086;-82
2023/05/02 11:24:48;;;;;;;4.35;1.40;;;12.90;1.00;;;;;;5062627;28;20569;-81
2023/05/02 11:27:29;;;;;;;4.20;0.80;;;12.90;1.00;;;;;;5035741;28;20052;-81
2023/05/02 11:29:55;;;;;;;2.42;0.68;;;12.90;1.00;;;;;;5061397;28;20052;-82
2023/05/02 11:32:21;;;;;;;3.28;0.88;;;13.00;1.00;;;;;;5072501;28;20056;-81
2023/05/02 11:34:51;;;;;;;4.10;0.68;;;13.10;1.00;;;;;;5052642;28;20048;-81
2023/05/02 11:37:19;;;;;;;6.53;0.80;;;13.30;1.00;;;;;;5022348;28;20045;-82
2023/05/02 11:39:45;;;;;;;2.85;1.00;;;13.40;1.00;;;;;;5055256;28;20414;-82
2023/05/02 11:42:31;;;;;;;3.75;0.88;;;13.60;1.00;;;;;;5066433;28;20052;-81
2023/05/02 11:44:58;;;;;;;2.22;1.13;;;13.70;1.00;;;;;;5054032;28;20052;-81
2023/05/02 11:47:28;;;;;;;2.53;0.65;;;13.60;1.00;;;;;;5069529;28;20040;-81
2023/05/02 11:49:55;;;;;;;4.63;0.80;;;13.60;1.00;;;;;;5082669;28;20100;-81
2023/05/02 11:52:22;;;;;;;3.33;0.85;;;13.70;1.00;;;;;;5054228;28;20052;-82
2023/05/02 11:54:49;;;;;;;4.53;1.00;;;13.70;1.00;;;;;;5061741;28;20374;-81
2023/05/02 11:57:15;;;;;;;4.38;1.27;;;13.40;1.00;;;;;;5053772;28;20056;-81
2023/05/02 11:59:54;;;;;;;1.55;0.75;;;13.00;1.00;;;;;;5057691;28;20044;-80
2023/05/02 12:02:35;;;;;;;4.85;1.13;;;12.70;1.00;;;;;;5046973;28;20063;-81
2023/05/02 12:05:02;;;;;;;4.88;1.00;;;12.40;1.00;;;;;;5063388;28;20051;-82
2023/05/02 12:07:54;;;;;;;1.88;0.93;;;12.20;1.00;;;;;;5067092;28;20170;-81
2023/05/02 12:10:19;;;;;;;6.15;1.42;;;12.10;1.00;;;;;;5039174;28;20067;-82
2023/05/02 12:12:46;;;;;;;2.40;0.80;;;12.00;1.00;;;;;;5036325;28;20052;-81
2023/05/02 12:15:12;;;;;;;5.32;1.45;;;12.00;1.00;;;;;;5053126;28;20052;-81
2023/05/02 12:17:40;;;;;;;5.43;0.77;;;12.00;1.00;;;;;;5039418;28;20466;-86
2023/05/02 12:20:08;;;;;;;6.47;1.08;;;12.20;1.00;;;;;;5070370;28;20048;-81
2023/05/02 12:22:34;;;;;;;4.85;1.13;;;12.50;1.00;;;;;;5034516;28;20478;-82
2023/05/02 12:25:00;;;;;;;3.42;1.00;;;12.70;1.00;;;;;;5069684;28;20048;-81
2023/05/02 12:27:26;;;;;;;4.93;0.90;;;12.70;1.00;;;;;;5053137;28;20481;-82
2023/05/02 12:29:52;;;;;;;5.28;0.90;;;12.60;1.00;;;;;;5069494;28;20052;-81
2023/05/02 12:32:29;;;;;;;3.42;0.90;;;12.50;1.00;;;;;;5070089;28;20041;-81
2023/05/02 12:34:56;;;;;;;2.45;0.80;;;12.40;1.00;;;;;;5053026;28;20049;-81
2023/05/02 12:37:25;;;;;;;6.28;0.80;;;12.40;1.00;;;;;;5055847;28;20494;-82
2023/05/02 12:39:52;;;;;;;2.15;0.75;;;12.50;1.00;;;;;;5053211;28;20048;-81
2023/05/02 12:42:20;;;;;;;3.13;0.70;;;12.70;1.00;;;;;;5070008;28;20520;-82
2023/05/02 12:44:47;;;;;;;4.30;0.90;;;13.20;1.00;;;;;;5069801;28;20463;-82
2023/05/02 12:47:14;;;;;;;3.45;0.85;;;14.20;1.00;;;;;;5057094;28;20040;-81
2023/05/02 12:49:58;;;;;;;1.02;0.40;;;15.30;1.00;;;;;;5056625;28;20048;-84
2023/05/02 12:52:46;;;;;;;3.90;1.48;;;15.40;1.00;;;;;;5077659;28;20041;-81
2023/05/02 12:55:18;;;;;;;3.85;0.70;;;14.90;1.00;;;;;;5041540;28;20944;-81
2023/05/02 12:57:44;;;;;;;1.00;0.57;;;14.20;1.00;;;;;;5069330;28;20052;-82
2023/05/02 13:00:11;;;;;;;4.95;1.00;;;13.70;1.00;;;;;;5065851;28;20380;-83
2023/05/02 13:02:37;;;;;;;3.92;0.50;;;13.40;1.00;;;;;;5076829;28;20054;-82
2023/05/02 13:05:13;;;;;;;1.48;0.60;;;13.20;1.00;;;;;;5073282;28;20048;-81